Arcade, New York
Current Conditions -  °F | °C
As of 4:35 PM on Wednesday 26 Nov 2014 (Local Time) from KOLE Reporting Station
Light Snow Light Snow  
Wind Chill: 23°   Ceiling: 8000
Heat Index: 28°   Visibility: 2.5mi
Dew Point: 28°   Wind: 5mph
Humidity: 100%   Direction: 40°NE
Pressure: 29.99"   Gusts: NA
Location:  42.53°N, 78.42°W
Report Text: KOLE 262135Z AUTO 04004KT 2 1/2SM -SN SCT007 SCT010 OVC080 M02/M02 A2999 RMK AO2
Loading
Personal Weather Stations






























Interactive Weather Map New forecast layout! Learn more

10-Day Weather Forecast

Advertisements
Track Severe Weather on mobile